createdAt,value
2023-04-25T00:02:39.476Z,99487.31
2023-04-25T00:07:44.607Z,99489.63
2023-04-25T00:12:47.928Z,99484.25
2023-04-25T00:17:54.328Z,99478.03
2023-04-25T00:22:58.460Z,99478.66
2023-04-25T00:28:01.887Z,99483.41
2023-04-25T00:33:07.047Z,99487.19
2023-04-25T00:38:11.134Z,99487.50
2023-04-25T00:43:14.320Z,99501.88
2023-04-25T00:48:19.837Z,99497.63
2023-04-25T00:53:23.784Z,99489.00
2023-04-25T00:58:27.484Z,99492.34
2023-04-25T01:03:37.524Z,99495.50
2023-04-25T01:08:42.964Z,99490.84
2023-04-25T01:13:46.516Z,99496.09
2023-04-25T01:18:52.762Z,99495.00
2023-04-25T01:23:59.898Z,99488.41
2023-04-25T01:29:04.935Z,99491.16
2023-04-25T01:34:08.518Z,99486.81
2023-04-25T01:39:13.510Z,99493.78
2023-04-25T01:44:17.646Z,99494.34
2023-04-25T01:49:21.982Z,99491.75
2023-04-25T01:54:26.788Z,99494.91
2023-04-25T01:59:30.278Z,99488.75
2023-04-25T02:04:35.263Z,99498.88
2023-04-25T02:09:40.761Z,99488.75
2023-04-25T02:14:44.231Z,99495.16
2023-04-25T02:19:47.590Z,99492.25
2023-04-25T02:24:53.335Z,99482.50
2023-04-25T02:29:56.591Z,99489.91
2023-04-25T02:35:04.827Z,99491.94
2023-04-25T02:40:12.196Z,99486.34
2023-04-25T02:45:15.589Z,99487.69
2023-04-25T02:50:19.958Z,99481.09
2023-04-25T02:55:27.065Z,99477.41
2023-04-25T03:00:31.535Z,99480.41
2023-04-25T03:05:36.294Z,99488.59
2023-04-25T03:10:41.230Z,99487.19
2023-04-25T03:15:44.926Z,99476.34
2023-04-25T03:20:49.051Z,99482.75
2023-04-25T03:25:54.296Z,99484.66
2023-04-25T03:30:57.747Z,99489.34
2023-04-25T03:36:01.031Z,99493.00
2023-04-25T03:41:06.784Z,99476.03
2023-04-25T03:46:10.116Z,99479.97
2023-04-25T03:51:13.877Z,99479.38
2023-04-25T03:56:18.793Z,99489.09
2023-04-25T04:01:22.650Z,99484.97
2023-04-25T04:06:26.710Z,99484.28
2023-04-25T04:11:32.568Z,99485.25
2023-04-25T04:16:41.206Z,99490.31
2023-04-25T04:21:45.491Z,99498.81
2023-04-25T04:26:52.074Z,99505.56
2023-04-25T04:31:57.044Z,99507.06
2023-04-25T04:37:01.638Z,99507.50
2023-04-25T04:42:07.779Z,99509.59
2023-04-25T04:47:11.799Z,99511.53
2023-04-25T04:52:15.829Z,99515.13
2023-04-25T04:57:20.637Z,99517.91
2023-04-25T05:02:24.816Z,99518.91
2023-04-25T05:07:28.734Z,99519.63
2023-04-25T05:12:38.553Z,99522.13
2023-04-25T05:17:42.864Z,99519.56
2023-04-25T05:22:48.963Z,99515.59
2023-04-25T05:27:54.550Z,99493.78
2023-04-25T05:32:58.695Z,99501.31
2023-04-25T05:38:02.013Z,99510.09
2023-04-25T05:43:06.924Z,99499.28
2023-04-25T05:48:10.795Z,99503.34
2023-04-25T05:53:14.235Z,99515.72
2023-04-25T05:58:19.990Z,99528.69
2023-04-25T06:03:24.016Z,99536.03
2023-04-25T06:08:27.958Z,99553.13
2023-04-25T06:13:33.981Z,99545.63
2023-04-25T06:18:37.424Z,99552.66
2023-04-25T06:23:40.912Z,99546.47
2023-04-25T06:28:47.116Z,99540.03
2023-04-25T06:33:51.543Z,99521.59
2023-04-25T06:38:55.468Z,99531.75
2023-04-25T06:44:00.266Z,99540.69
2023-04-25T06:49:03.444Z,99541.03
2023-04-25T06:54:07.351Z,99548.06
2023-04-25T06:59:12.013Z,99555.28
2023-04-25T07:04:17.963Z,99551.34
2023-04-25T07:09:21.704Z,99566.97
2023-04-25T07:14:27.253Z,99570.22
2023-04-25T07:19:30.956Z,99572.84
2023-04-25T07:25:35.093Z,99570.69
2023-04-25T07:30:49.835Z,99577.81
2023-04-25T07:36:14.045Z,99583.50
2023-04-25T07:41:23.531Z,99580.94
2023-04-25T07:46:28.400Z,99596.75
2023-04-25T07:51:32.702Z,99597.09
2023-04-25T07:57:19.812Z,99605.16
2023-04-25T08:02:27.555Z,99615.91
2023-04-25T08:07:32.073Z,99629.03
2023-04-25T08:12:36.055Z,99629.69
2023-04-25T08:17:41.121Z,99641.19
2023-04-25T08:22:45.283Z,99646.97
2023-04-25T08:27:49.852Z,99638.91
2023-04-25T08:38:12.534Z,99654.31
2023-04-25T08:43:17.275Z,99668.94
2023-04-25T08:48:24.064Z,99667.81
2023-04-25T08:53:29.333Z,99677.50
2023-04-25T08:58:34.925Z,99685.38
2023-04-25T09:03:40.951Z,99701.31
2023-04-25T09:08:44.785Z,99707.09
2023-04-25T09:13:49.252Z,99706.78
2023-04-25T09:18:54.896Z,99707.44
2023-04-25T09:24:01.208Z,99713.66
2023-04-25T09:29:08.432Z,99719.09
2023-04-25T09:34:16.871Z,99733.72
2023-04-25T09:39:24.061Z,99738.44
2023-04-25T09:44:29.330Z,99739.22
2023-04-25T09:49:34.892Z,99748.28
2023-04-25T09:54:39.283Z,99736.97
2023-04-25T09:59:48.181Z,99745.00
2023-04-25T10:04:56.561Z,99745.16
2023-04-25T10:10:04.974Z,99749.75
2023-04-25T10:15:11.545Z,99749.75
2023-04-25T10:20:16.856Z,99755.16
2023-04-25T10:25:22.846Z,99753.75
2023-04-25T10:30:27.038Z,99743.91
2023-04-25T10:35:33.793Z,99749.63
2023-04-25T10:40:37.311Z,99752.06
2023-04-25T10:45:54.244Z,99752.88
2023-04-25T10:51:11.397Z,99756.31
2023-04-25T10:56:22.451Z,99756.44
2023-04-25T11:01:27.684Z,99762.84
2023-04-25T11:06:52.048Z,99757.91
2023-04-25T11:11:57.523Z,99763.47
2023-04-25T11:17:02.127Z,99773.59
2023-04-25T11:22:07.925Z,99774.38
2023-04-25T11:27:12.655Z,99784.47
2023-04-25T11:32:21.662Z,99787.38
2023-04-25T11:37:26.692Z,99782.91
2023-04-25T11:42:30.430Z,99780.63
2023-04-25T11:47:34.430Z,99787.63
2023-04-25T11:52:40.500Z,99786.06
2023-04-25T11:57:44.815Z,99796.75
2023-04-25T12:02:50.056Z,99795.72
2023-04-25T12:07:55.344Z,99804.31
2023-04-25T12:13:01.533Z,99800.25
2023-04-25T12:18:07.340Z,99789.84
2023-04-25T12:23:15.659Z,99794.88
2023-04-25T12:28:21.300Z,99799.22
2023-04-25T12:33:25.121Z,99806.41
2023-04-25T12:38:35.529Z,99816.88
2023-04-25T12:43:38.998Z,99812.72
2023-04-25T12:48:42.788Z,99809.25
2023-04-25T12:53:47.912Z,99823.75
2023-04-25T12:58:52.287Z,99815.38
2023-04-25T13:03:56.680Z,99825.41
2023-04-25T13:09:01.517Z,99821.59
2023-04-25T13:14:05.270Z,99825.53
2023-04-25T13:19:12.073Z,99833.66
2023-04-25T13:24:17.429Z,99832.16
2023-04-25T13:29:21.627Z,99832.38
2023-04-25T13:34:25.675Z,99837.09
2023-04-25T13:39:31.012Z,99836.22
2023-04-25T13:44:34.647Z,99838.22
2023-04-25T13:49:38.571Z,99842.00
2023-04-25T13:54:44.361Z,99845.47
2023-04-25T13:59:48.460Z,99833.66
2023-04-25T14:04:55.081Z,99849.25
2023-04-25T14:10:00.811Z,99849.75
2023-04-25T14:15:22.904Z,99849.09
2023-04-25T14:20:45.048Z,99849.59
2023-04-25T14:26:25.529Z,99856.66
2023-04-25T14:31:47.982Z,99861.91
2023-04-25T14:37:10.908Z,99863.03
2023-04-25T14:42:35.657Z,99866.00
2023-04-25T14:47:40.726Z,99878.69
2023-04-25T14:52:44.233Z,99875.91
2023-04-25T14:57:49.728Z,99886.75
2023-04-25T15:02:53.996Z,99893.47
2023-04-25T15:08:19.965Z,99898.41
2023-04-25T15:13:45.610Z,99901.50
2023-04-25T15:19:09.929Z,99905.69
2023-04-25T15:24:32.979Z,99909.47
2023-04-25T15:29:37.983Z,99916.22
2023-04-25T15:34:41.502Z,99917.38
2023-04-25T15:39:46.643Z,99921.78
2023-04-25T15:44:51.650Z,99921.28
2023-04-25T15:49:54.968Z,99923.88
2023-04-25T15:54:58.909Z,99929.59
2023-04-25T16:00:13.284Z,99940.09
2023-04-25T16:05:29.276Z,99939.69
2023-04-25T16:10:33.098Z,99939.72
2023-04-25T16:15:58.370Z,99934.75
2023-04-25T16:21:02.093Z,99937.59
2023-04-25T16:26:05.716Z,99939.03
2023-04-25T16:31:10.829Z,99948.50
2023-04-25T16:36:14.892Z,99948.97
2023-04-25T16:41:19.026Z,99952.03
2023-04-25T16:46:24.125Z,99954.06
2023-04-25T16:51:40.491Z,99957.41
2023-04-25T16:56:49.304Z,99953.09
2023-04-25T17:02:12.371Z,99969.94
2023-04-25T17:07:16.074Z,99971.09
2023-04-25T17:12:21.935Z,99971.34
2023-04-25T17:17:27.298Z,99964.03
2023-04-25T17:22:35.247Z,99968.69
2023-04-25T17:27:39.125Z,99972.88
2023-04-25T17:32:43.983Z,99982.00
2023-04-25T17:37:48.860Z,99983.41
2023-04-25T17:42:55.425Z,99982.09
2023-04-25T17:48:02.710Z,99997.16
2023-04-25T17:53:06.134Z,99996.41
2023-04-25T17:58:10.146Z,100002.19
2023-04-25T18:03:17.681Z,100009.38
2023-04-25T18:08:22.792Z,100011.03
2023-04-25T18:13:27.707Z,100020.94
2023-04-25T18:18:34.744Z,100025.75
2023-04-25T18:23:39.713Z,100036.47
2023-04-25T18:28:45.475Z,100034.38
2023-04-25T18:33:51.786Z,100044.53
2023-04-25T18:39:05.432Z,100061.19
2023-04-25T18:44:15.440Z,100071.53
2023-04-25T18:49:21.649Z,100070.81
2023-04-25T18:54:29.171Z,100080.03
2023-04-25T18:59:33.836Z,100086.47
2023-04-25T19:04:57.208Z,100091.72
2023-04-25T19:10:11.131Z,100104.88
2023-04-25T19:15:27.297Z,100109.03
2023-04-25T19:20:53.964Z,100118.53
2023-04-25T19:26:07.077Z,100111.50
2023-04-25T19:31:17.899Z,100115.78
2023-04-25T19:36:26.019Z,100125.97
2023-04-25T19:41:36.172Z,100126.09
2023-04-25T19:46:44.200Z,100131.44
2023-04-25T19:51:55.918Z,100145.91
2023-04-25T19:57:00.526Z,100142.81
2023-04-25T20:02:07.251Z,100146.50
2023-04-25T20:07:12.581Z,100143.41
2023-04-25T20:12:16.615Z,100151.78
2023-04-25T20:17:20.103Z,100145.16
2023-04-25T20:22:25.774Z,100152.41
2023-04-25T20:27:29.899Z,100151.59
2023-04-25T20:32:38.042Z,100158.66
2023-04-25T20:37:43.826Z,100163.78
2023-04-25T20:42:48.931Z,100167.16
2023-04-25T20:47:53.680Z,100161.47
2023-04-25T20:52:58.534Z,100165.53
2023-04-25T20:58:08.503Z,100170.78
2023-04-25T21:03:13.255Z,100162.97
2023-04-25T21:08:18.730Z,100165.19
2023-04-25T21:13:24.278Z,100173.63
2023-04-25T21:18:30.130Z,100172.66
2023-04-25T21:23:38.132Z,100180.25
2023-04-25T21:28:41.906Z,100177.63
2023-04-25T21:33:45.513Z,100186.41
2023-04-25T21:38:50.461Z,100185.34
2023-04-25T21:43:54.294Z,100182.25
2023-04-25T21:48:57.751Z,100183.47
2023-04-25T21:54:05.439Z,100182.06
2023-04-25T21:59:08.950Z,100184.78
2023-04-25T22:04:12.984Z,100197.50
2023-04-25T22:09:18.474Z,100200.16
2023-04-25T22:14:23.228Z,100207.41
2023-04-25T22:19:28.493Z,100215.59
2023-04-25T22:24:33.306Z,100224.94
2023-04-25T22:29:42.255Z,100230.91
2023-04-25T22:34:46.155Z,100232.91
2023-04-25T22:39:53.142Z,100230.31
2023-04-25T22:44:56.581Z,100240.03
2023-04-25T22:50:00.543Z,100240.03
2023-04-25T22:55:05.994Z,100253.16
2023-04-25T23:00:16.008Z,100250.91
2023-04-25T23:05:20.389Z,100260.75
2023-04-25T23:10:26.026Z,100261.06
2023-04-25T23:15:39.709Z,100272.91
2023-04-25T23:20:43.304Z,100269.81
2023-04-25T23:25:49.250Z,100279.34
2023-04-25T23:30:53.110Z,100280.72
2023-04-25T23:35:56.817Z,100280.22
2023-04-25T23:41:03.423Z,100284.44
2023-04-25T23:46:10.145Z,100290.09
2023-04-25T23:51:14.234Z,100296.13
2023-04-25T23:56:19.256Z,100293.31
